sensor_id;sensor_type;location;lat;lon;timestamp;pressure;altitude;pressure_sealevel;temperature;humidity
17209;BME280;8720;48.488;9.202;2023-03-02T00:00:55;97020.06;;;6.61;44.00
17209;BME280;8720;48.488;9.202;2023-03-02T00:03:25;97028.72;;;6.60;43.87
17209;BME280;8720;48.488;9.202;2023-03-02T00:05:55;97033.09;;;6.57;44.03
17209;BME280;8720;48.488;9.202;2023-03-02T00:08:26;97020.97;;;6.54;44.01
17209;BME280;8720;48.488;9.202;2023-03-02T00:10:55;97023.63;;;6.50;44.12
17209;BME280;8720;48.488;9.202;2023-03-02T00:13:26;97026.25;;;6.45;44.20
17209;BME280;8720;48.488;9.202;2023-03-02T00:15:54;97017.63;;;6.38;44.14
17209;BME280;8720;48.488;9.202;2023-03-02T00:18:23;97022.03;;;6.32;44.35
17209;BME280;8720;48.488;9.202;2023-03-02T00:20:50;97024.63;;;6.29;44.25
17209;BME280;8720;48.488;9.202;2023-03-02T00:23:19;97022.06;;;6.26;44.51
17209;BME280;8720;48.488;9.202;2023-03-02T00:25:46;97028.16;;;6.23;44.55
17209;BME280;8720;48.488;9.202;2023-03-02T00:28:14;97029.00;;;6.21;44.28
17209;BME280;8720;48.488;9.202;2023-03-02T00:30:41;97029.03;;;6.19;44.54
17209;BME280;8720;48.488;9.202;2023-03-02T00:33:08;97027.31;;;6.15;44.51
17209;BME280;8720;48.488;9.202;2023-03-02T00:35:37;97028.22;;;6.11;44.34
17209;BME280;8720;48.488;9.202;2023-03-02T00:38:04;97035.16;;;6.09;44.24
17209;BME280;8720;48.488;9.202;2023-03-02T00:40:33;97029.13;;;6.06;44.59
17209;BME280;8720;48.488;9.202;2023-03-02T00:43:01;97023.97;;;6.01;44.49
17209;BME280;8720;48.488;9.202;2023-03-02T00:45:28;97024.00;;;5.97;44.54
17209;BME280;8720;48.488;9.202;2023-03-02T00:47:56;97021.41;;;5.92;44.65
17209;BME280;8720;48.488;9.202;2023-03-02T00:50:23;97021.44;;;5.91;44.65
17209;BME280;8720;48.488;9.202;2023-03-02T00:52:50;97025.78;;;5.89;44.65
17209;BME280;8720;48.488;9.202;2023-03-02T00:55:18;97024.91;;;5.87;45.00
17209;BME280;8720;48.488;9.202;2023-03-02T00:57:51;97017.13;;;5.87;44.90
17209;BME280;8720;48.488;9.202;2023-03-02T01:00:24;97017.13;;;5.87;44.78
17209;BME280;8720;48.488;9.202;2023-03-02T01:02:55;97011.09;;;5.88;44.97
17209;BME280;8720;48.488;9.202;2023-03-02T01:05:23;97015.38;;;5.90;44.94
17209;BME280;8720;48.488;9.202;2023-03-02T01:07:50;97005.00;;;5.90;45.18
17209;BME280;8720;48.488;9.202;2023-03-02T01:10:17;96994.63;;;5.92;44.96
17209;BME280;8720;48.488;9.202;2023-03-02T01:12:46;97000.66;;;5.94;44.96
17209;BME280;8720;48.488;9.202;2023-03-02T01:15:14;96991.13;;;5.93;44.97
17209;BME280;8720;48.488;9.202;2023-03-02T01:17:41;96988.53;;;5.94;44.97
17209;BME280;8720;48.488;9.202;2023-03-02T01:20:11;96990.31;;;5.89;45.16
17209;BME280;8720;48.488;9.202;2023-03-02T01:22:39;96998.97;;;5.90;45.61
17209;BME280;8720;48.488;9.202;2023-03-02T01:25:07;96985.13;;;5.89;45.20
17209;BME280;8720;48.488;9.202;2023-03-02T01:27:35;96985.97;;;5.91;45.55
17209;BME280;8720;48.488;9.202;2023-03-02T01:30:06;96986.81;;;5.93;45.68
17209;BME280;8720;48.488;9.202;2023-03-02T01:32:33;96983.31;;;5.97;45.76
17209;BME280;8720;48.488;9.202;2023-03-02T01:35:01;96972.88;;;6.02;45.69
17209;BME280;8720;48.488;9.202;2023-03-02T01:37:28;96968.56;;;6.07;45.65
17209;BME280;8720;48.488;9.202;2023-03-02T01:39:55;96971.97;;;6.12;45.71
17209;BME280;8720;48.488;9.202;2023-03-02T01:42:23;96945.19;;;6.05;45.89
17209;BME280;8720;48.488;9.202;2023-03-02T01:44:53;96961.50;;;6.22;45.69
17209;BME280;8720;48.488;9.202;2023-03-02T01:47:30;96962.28;;;6.32;45.67
17209;BME280;8720;48.488;9.202;2023-03-02T01:50:21;96959.63;;;6.36;45.72
17209;BME280;8720;48.488;9.202;2023-03-02T01:52:54;96935.41;;;6.33;45.63
17209;BME280;8720;48.488;9.202;2023-03-02T01:55:28;96948.31;;;6.45;45.62
17209;BME280;8720;48.488;9.202;2023-03-02T01:57:59;96948.25;;;6.48;45.74
17209;BME280;8720;48.488;9.202;2023-03-02T02:00:32;96948.22;;;6.54;45.55
17209;BME280;8720;48.488;9.202;2023-03-02T02:03:09;96943.84;;;6.59;45.62
17209;BME280;8720;48.488;9.202;2023-03-02T02:05:41;96950.75;;;6.63;45.71
17209;BME280;8720;48.488;9.202;2023-03-02T02:08:09;96955.00;;;6.67;45.61
17209;BME280;8720;48.488;9.202;2023-03-02T02:10:38;96960.22;;;6.69;45.72
17209;BME280;8720;48.488;9.202;2023-03-02T02:13:08;96943.69;;;6.74;45.72
17209;BME280;8720;48.488;9.202;2023-03-02T02:15:37;96956.66;;;6.76;45.64
17209;BME280;8720;48.488;9.202;2023-03-02T02:18:08;96955.84;;;6.72;46.00
17209;BME280;8720;48.488;9.202;2023-03-02T02:20:39;96953.25;;;6.71;46.08
17209;BME280;8720;48.488;9.202;2023-03-02T02:23:24;96944.63;;;6.66;46.15
17209;BME280;8720;48.488;9.202;2023-03-02T02:26:06;96953.28;;;6.66;46.23
17209;BME280;8720;48.488;9.202;2023-03-02T02:28:41;96942.88;;;6.68;46.09
17209;BME280;8720;48.488;9.202;2023-03-02T02:31:16;96939.47;;;6.63;46.16
17209;BME280;8720;48.488;9.202;2023-03-02T02:33:52;96935.97;;;6.67;46.20
17209;BME280;8720;48.488;9.202;2023-03-02T02:36:25;96935.09;;;6.66;46.28
17209;BME280;8720;48.488;9.202;2023-03-02T02:39:04;96931.66;;;6.64;46.19
17209;BME280;8720;48.488;9.202;2023-03-02T02:41:38;96936.81;;;6.67;46.18
17209;BME280;8720;48.488;9.202;2023-03-02T02:44:08;96933.38;;;6.64;46.20
17209;BME280;8720;48.488;9.202;2023-03-02T02:46:38;96931.59;;;6.70;46.38
17209;BME280;8720;48.488;9.202;2023-03-02T02:49:11;96930.72;;;6.73;46.41
17209;BME280;8720;48.488;9.202;2023-03-02T02:51:43;96927.22;;;6.74;46.41
17209;BME280;8720;48.488;9.202;2023-03-02T02:54:16;96920.31;;;6.73;46.43
17209;BME280;8720;48.488;9.202;2023-03-02T02:56:49;96927.28;;;6.71;46.24
17209;BME280;8720;48.488;9.202;2023-03-02T02:59:20;96926.38;;;6.72;46.25
17209;BME280;8720;48.488;9.202;2023-03-02T03:04:27;96913.38;;;6.75;46.34
17209;BME280;8720;48.488;9.202;2023-03-02T03:06:59;96912.50;;;6.74;46.50
17209;BME280;8720;48.488;9.202;2023-03-02T03:09:28;96901.25;;;6.72;46.38
17209;BME280;8720;48.488;9.202;2023-03-02T03:12:00;96906.47;;;6.69;46.35
17209;BME280;8720;48.488;9.202;2023-03-02T03:14:33;96909.97;;;6.68;46.40
17209;BME280;8720;48.488;9.202;2023-03-02T03:17:01;96906.53;;;6.65;46.60
17209;BME280;8720;48.488;9.202;2023-03-02T03:19:31;96915.19;;;6.64;46.67
17209;BME280;8720;48.488;9.202;2023-03-02T03:22:01;96914.41;;;6.57;46.66
17209;BME280;8720;48.488;9.202;2023-03-02T03:24:34;96917.78;;;6.67;46.42
17209;BME280;8720;48.488;9.202;2023-03-02T03:27:06;96917.75;;;6.68;46.63
17209;BME280;8720;48.488;9.202;2023-03-02T03:29:39;96912.56;;;6.68;46.48
17209;BME280;8720;48.488;9.202;2023-03-02T03:32:08;96909.97;;;6.68;46.53
17209;BME280;8720;48.488;9.202;2023-03-02T03:34:37;96905.72;;;6.61;46.49
17209;BME280;8720;48.488;9.202;2023-03-02T03:37:10;96913.44;;;6.66;46.75
17209;BME280;8720;48.488;9.202;2023-03-02T03:39:37;96913.44;;;6.66;46.53
17209;BME280;8720;48.488;9.202;2023-03-02T03:42:07;96894.50;;;6.55;46.58
17209;BME280;8720;48.488;9.202;2023-03-02T03:44:36;96914.31;;;6.66;46.71
17209;BME280;8720;48.488;9.202;2023-03-02T03:47:04;96920.38;;;6.67;46.69
17209;BME280;8720;48.488;9.202;2023-03-02T03:49:32;96908.28;;;6.64;46.70
17209;BME280;8720;48.488;9.202;2023-03-02T03:51:59;96910.03;;;6.61;46.77
17209;BME280;8720;48.488;9.202;2023-03-02T03:54:28;96916.09;;;6.61;46.68
17209;BME280;8720;48.488;9.202;2023-03-02T03:56:56;96923.06;;;6.59;46.78
17209;BME280;8720;48.488;9.202;2023-03-02T03:59:26;96925.66;;;6.58;46.90
17209;BME280;8720;48.488;9.202;2023-03-02T04:02:00;96930.03;;;6.54;47.00
17209;BME280;8720;48.488;9.202;2023-03-02T04:04:34;96926.56;;;6.52;46.90
17209;BME280;8720;48.488;9.202;2023-03-02T04:07:07;96930.91;;;6.50;46.87
17209;BME280;8720;48.488;9.202;2023-03-02T04:09:36;96927.50;;;6.50;46.85
17209;BME280;8720;48.488;9.202;2023-03-02T04:12:08;96923.16;;;6.49;46.98
17209;BME280;8720;48.488;9.202;2023-03-02T04:14:39;96918.84;;;6.46;46.93
17209;BME280;8720;48.488;9.202;2023-03-02T04:17:06;96928.38;;;6.44;46.84
17209;BME280;8720;48.488;9.202;2023-03-02T04:19:37;96930.16;;;6.42;46.94
17209;BME280;8720;48.488;9.202;2023-03-02T04:22:06;96931.03;;;6.41;46.93
17209;BME280;8720;48.488;9.202;2023-03-02T04:24:33;96931.03;;;6.39;47.30
17209;BME280;8720;48.488;9.202;2023-03-02T04:27:03;96929.31;;;6.37;47.10
17209;BME280;8720;48.488;9.202;2023-03-02T04:29:32;96935.41;;;6.36;47.28
17209;BME280;8720;48.488;9.202;2023-03-02T04:32:04;96938.88;;;6.35;47.37
17209;BME280;8720;48.488;9.202;2023-03-02T04:34:33;96937.16;;;6.34;47.07
17209;BME280;8720;48.488;9.202;2023-03-02T04:37:02;96937.16;;;6.34;47.06
17209;BME280;8720;48.488;9.202;2023-03-02T04:39:29;96935.41;;;6.36;47.32
17209;BME280;8720;48.488;9.202;2023-03-02T04:41:57;96944.88;;;6.38;47.29
17209;BME280;8720;48.488;9.202;2023-03-02T04:44:24;96946.59;;;6.41;47.34
17209;BME280;8720;48.488;9.202;2023-03-02T04:46:51;96944.84;;;6.44;47.25
17209;BME280;8720;48.488;9.202;2023-03-02T04:49:20;96950.03;;;6.48;47.28
17209;BME280;8720;48.488;9.202;2023-03-02T04:51:48;96951.72;;;6.52;47.40
17209;BME280;8720;48.488;9.202;2023-03-02T04:54:19;96940.47;;;6.51;47.39
17209;BME280;8720;48.488;9.202;2023-03-02T04:56:47;96945.63;;;6.53;47.34
17209;BME280;8720;48.488;9.202;2023-03-02T04:59:17;96953.44;;;6.53;47.06
17209;BME280;8720;48.488;9.202;2023-03-02T05:01:45;96943.06;;;6.51;47.31
17209;BME280;8720;48.488;9.202;2023-03-02T05:04:13;96943.03;;;6.53;47.39
17209;BME280;8720;48.488;9.202;2023-03-02T05:06:42;96937.84;;;6.53;47.37
17209;BME280;8720;48.488;9.202;2023-03-02T05:09:10;96938.72;;;6.53;47.45
17209;BME280;8720;48.488;9.202;2023-03-02T05:11:37;96935.25;;;6.51;47.32
17209;BME280;8720;48.488;9.202;2023-03-02T05:14:08;96936.97;;;6.52;47.36
17209;BME280;8720;48.488;9.202;2023-03-02T05:16:38;96932.63;;;6.53;47.31
17209;BME280;8720;48.488;9.202;2023-03-02T05:19:09;96935.19;;;6.56;47.25
17209;BME280;8720;48.488;9.202;2023-03-02T05:21:37;96935.19;;;6.56;47.42
17209;BME280;8720;48.488;9.202;2023-03-02T05:24:07;96935.19;;;6.56;47.30
17209;BME280;8720;48.488;9.202;2023-03-02T05:26:34;96941.28;;;6.55;47.08
17209;BME280;8720;48.488;9.202;2023-03-02T05:29:01;96935.22;;;6.54;47.25
17209;BME280;8720;48.488;9.202;2023-03-02T05:31:33;96930.88;;;6.56;47.22
17209;BME280;8720;48.488;9.202;2023-03-02T05:34:01;96931.78;;;6.54;47.21
17209;BME280;8720;48.488;9.202;2023-03-02T05:36:29;96925.78;;;6.46;47.32
17209;BME280;8720;48.488;9.202;2023-03-02T05:38:57;96933.53;;;6.52;47.32
17209;BME280;8720;48.488;9.202;2023-03-02T05:41:26;96917.16;;;6.42;47.48
17209;BME280;8720;48.488;9.202;2023-03-02T05:43:53;96930.97;;;6.44;47.47
17209;BME280;8720;48.488;9.202;2023-03-02T05:46:21;96934.38;;;6.52;47.54
17209;BME280;8720;48.488;9.202;2023-03-02T05:48:48;96926.56;;;6.52;47.44
17209;BME280;8720;48.488;9.202;2023-03-02T05:51:15;96933.50;;;6.53;47.38
17209;BME280;8720;48.488;9.202;2023-03-02T05:53:43;96944.75;;;6.55;47.66
17209;BME280;8720;48.488;9.202;2023-03-02T05:56:10;96937.81;;;6.54;47.67
17209;BME280;8720;48.488;9.202;2023-03-02T05:58:39;96945.59;;;6.56;47.63
17209;BME280;8720;48.488;9.202;2023-03-02T06:01:09;96942.13;;;6.57;47.56
17209;BME280;8720;48.488;9.202;2023-03-02T06:03:37;96941.22;;;6.61;47.62
17209;BME280;8720;48.488;9.202;2023-03-02T06:06:04;96937.75;;;6.62;47.56
17209;BME280;8720;48.488;9.202;2023-03-02T06:08:32;96944.69;;;6.63;47.32
17209;BME280;8720;48.488;9.202;2023-03-02T06:10:59;96943.81;;;6.62;47.40
17209;BME280;8720;48.488;9.202;2023-03-02T06:13:26;96947.28;;;6.61;47.65
17209;BME280;8720;48.488;9.202;2023-03-02T06:15:55;96947.28;;;6.61;47.67
17209;BME280;8720;48.488;9.202;2023-03-02T06:18:22;96949.00;;;6.62;47.40
17209;BME280;8720;48.488;9.202;2023-03-02T06:20:50;96950.72;;;6.65;47.61
17209;BME280;8720;48.488;9.202;2023-03-02T06:23:17;96947.22;;;6.67;47.53
17209;BME280;8720;48.488;9.202;2023-03-02T06:25:44;96945.47;;;6.69;47.49
17209;BME280;8720;48.488;9.202;2023-03-02T06:28:14;96951.50;;;6.71;47.65
17209;BME280;8720;48.488;9.202;2023-03-02T06:30:41;96954.94;;;6.73;47.46
17209;BME280;8720;48.488;9.202;2023-03-02T06:33:10;96960.16;;;6.75;47.59
17209;BME280;8720;48.488;9.202;2023-03-02T06:35:37;96955.81;;;6.77;47.70
17209;BME280;8720;48.488;9.202;2023-03-02T06:38:04;96954.03;;;6.80;47.69
17209;BME280;8720;48.488;9.202;2023-03-02T06:40:32;96954.91;;;6.78;47.45
17209;BME280;8720;48.488;9.202;2023-03-02T06:42:59;96958.34;;;6.80;47.40
17209;BME280;8720;48.488;9.202;2023-03-02T06:45:27;96942.06;;;6.63;47.46
17209;BME280;8720;48.488;9.202;2023-03-02T06:47:59;96971.38;;;6.78;47.81
17209;BME280;8720;48.488;9.202;2023-03-02T06:50:28;96978.34;;;6.76;47.63
17209;BME280;8720;48.488;9.202;2023-03-02T06:52:58;96985.22;;;6.80;47.52
17209;BME280;8720;48.488;9.202;2023-03-02T06:55:26;96978.28;;;6.82;47.83
17209;BME280;8720;48.488;9.202;2023-03-02T06:57:53;96984.28;;;6.86;47.72
17209;BME280;8720;48.488;9.202;2023-03-02T07:00:21;96985.97;;;6.91;47.60
17209;BME280;8720;48.488;9.202;2023-03-02T07:02:54;96991.13;;;6.94;47.50
17209;BME280;8720;48.488;9.202;2023-03-02T07:05:22;96983.28;;;6.99;47.63
17209;BME280;8720;48.488;9.202;2023-03-02T07:07:51;96995.38;;;7.03;47.60
17209;BME280;8720;48.488;9.202;2023-03-02T07:10:18;96993.63;;;7.05;47.68
17209;BME280;8720;48.488;9.202;2023-03-02T07:12:46;96998.81;;;7.06;47.56
17209;BME280;8720;48.488;9.202;2023-03-02T07:15:13;97001.44;;;7.05;47.59
17209;BME280;8720;48.488;9.202;2023-03-02T07:17:42;96989.28;;;7.04;47.51
17209;BME280;8720;48.488;9.202;2023-03-02T07:20:13;96986.81;;;6.93;47.92
17209;BME280;8720;48.488;9.202;2023-03-02T07:22:42;96998.00;;;7.01;47.77
17209;BME280;8720;48.488;9.202;2023-03-02T07:25:11;96993.66;;;7.03;47.76
17209;BME280;8720;48.488;9.202;2023-03-02T07:27:39;96994.50;;;7.04;47.70
17209;BME280;8720;48.488;9.202;2023-03-02T07:30:09;96997.06;;;7.08;47.82
17209;BME280;8720;48.488;9.202;2023-03-02T07:32:37;96999.63;;;7.11;47.55
17209;BME280;8720;48.488;9.202;2023-03-02T07:35:05;96997.00;;;7.14;47.54
17209;BME280;8720;48.488;9.202;2023-03-02T07:37:32;96990.91;;;7.17;47.58
17209;BME280;8720;48.488;9.202;2023-03-02T07:40:00;97003.88;;;7.18;47.55
17209;BME280;8720;48.488;9.202;2023-03-02T07:42:28;97002.09;;;7.22;47.73
17209;BME280;8720;48.488;9.202;2023-03-02T07:44:57;96996.88;;;7.25;47.64
17209;BME280;8720;48.488;9.202;2023-03-02T07:47:25;97006.34;;;7.29;47.63
17209;BME280;8720;48.488;9.202;2023-03-02T07:49:52;97006.28;;;7.35;47.45
17209;BME280;8720;48.488;9.202;2023-03-02T07:52:19;97013.16;;;7.39;47.45
17209;BME280;8720;48.488;9.202;2023-03-02T07:54:47;97012.25;;;7.45;47.40
17209;BME280;8720;48.488;9.202;2023-03-02T07:57:15;97016.50;;;7.50;47.58
17209;BME280;8720;48.488;9.202;2023-03-02T07:59:44;97013.84;;;7.55;47.38
17209;BME280;8720;48.488;9.202;2023-03-02T08:02:15;97019.03;;;7.58;47.34
17209;BME280;8720;48.488;9.202;2023-03-02T08:04:45;97013.78;;;7.61;47.43
17209;BME280;8720;48.488;9.202;2023-03-02T08:07:12;97014.56;;;7.66;47.37
17209;BME280;8720;48.488;9.202;2023-03-02T08:09:40;97017.09;;;7.72;47.16
17209;BME280;8720;48.488;9.202;2023-03-02T08:12:07;97018.78;;;7.76;47.46
17209;BME280;8720;48.488;9.202;2023-03-02T08:14:34;97023.06;;;7.80;47.39
17209;BME280;8720;48.488;9.202;2023-03-02T08:17:04;97029.06;;;7.86;47.38
17209;BME280;8720;48.488;9.202;2023-03-02T08:19:32;97023.84;;;7.88;47.38
17209;BME280;8720;48.488;9.202;2023-03-02T08:22:00;97022.94;;;7.89;47.31
17209;BME280;8720;48.488;9.202;2023-03-02T08:24:28;97022.09;;;7.88;47.32
17209;BME280;8720;48.488;9.202;2023-03-02T08:26:58;97029.00;;;7.92;47.55
17209;BME280;8720;48.488;9.202;2023-03-02T08:29:26;97037.63;;;7.96;47.19
17209;BME280;8720;48.488;9.202;2023-03-02T08:31:53;97023.63;;;8.03;47.33
17209;BME280;8720;48.488;9.202;2023-03-02T08:34:22;97027.00;;;8.11;47.25
17209;BME280;8720;48.488;9.202;2023-03-02T08:36:51;97029.41;;;8.23;47.28
17209;BME280;8720;48.488;9.202;2023-03-02T08:39:18;97029.41;;;8.26;47.23
17209;BME280;8720;48.488;9.202;2023-03-02T08:41:49;97025.81;;;8.33;47.14
17209;BME280;8720;48.488;9.202;2023-03-02T08:44:16;97029.19;;;8.40;47.06
17209;BME280;8720;48.488;9.202;2023-03-02T08:46:45;97030.81;;;8.47;47.12
17209;BME280;8720;48.488;9.202;2023-03-02T08:49:14;97032.44;;;8.54;47.00
17209;BME280;8720;48.488;9.202;2023-03-02T08:51:45;97029.75;;;8.58;46.89
17209;BME280;8720;48.488;9.202;2023-03-02T08:54:13;97025.38;;;8.62;47.03
17209;BME280;8720;48.488;9.202;2023-03-02T08:56:41;97024.34;;;8.70;47.04
17209;BME280;8720;48.488;9.202;2023-03-02T08:59:12;97020.69;;;8.80;47.01
17209;BME280;8720;48.488;9.202;2023-03-02T09:01:41;97020.59;;;8.86;47.20
17209;BME280;8720;48.488;9.202;2023-03-02T09:04:09;97017.06;;;8.90;46.74
17209;BME280;8720;48.488;9.202;2023-03-02T09:06:40;97016.03;;;8.97;46.86
17209;BME280;8720;48.488;9.202;2023-03-02T09:09:12;97013.28;;;9.05;46.80
17209;BME280;8720;48.488;9.202;2023-03-02T09:11:40;97010.50;;;9.14;46.65
17209;BME280;8720;48.488;9.202;2023-03-02T09:14:08;97012.09;;;9.23;46.55
17209;BME280;8720;48.488;9.202;2023-03-02T09:16:36;97010.22;;;9.31;46.43
17209;BME280;8720;48.488;9.202;2023-03-02T09:19:04;97013.50;;;9.40;46.19
17209;BME280;8720;48.488;9.202;2023-03-02T09:21:31;97013.28;;;9.51;46.25
17209;BME280;8720;48.488;9.202;2023-03-02T09:23:58;97013.94;;;9.60;46.25
17209;BME280;8720;48.488;9.202;2023-03-02T09:26:27;97022.44;;;9.71;46.15
17209;BME280;8720;48.488;9.202;2023-03-02T09:28:55;97020.53;;;9.78;46.00
17209;BME280;8720;48.488;9.202;2023-03-02T09:31:23;97029.09;;;9.86;45.87
17209;BME280;8720;48.488;9.202;2023-03-02T09:33:50;97021.13;;;9.92;45.75
17209;BME280;8720;48.488;9.202;2023-03-02T09:36:21;97013.22;;;9.95;45.74
17209;BME280;8720;48.488;9.202;2023-03-02T09:38:50;97022.56;;;10.05;45.72
17209;BME280;8720;48.488;9.202;2023-03-02T09:42:11;97019.81;;;10.14;45.91
17209;BME280;8720;48.488;9.202;2023-03-02T09:45:05;97023.16;;;10.19;45.80
17209;BME280;8720;48.488;9.202;2023-03-02T09:47:51;97022.13;;;10.26;45.57
17209;BME280;8720;48.488;9.202;2023-03-02T09:50:30;97024.59;;;10.32;45.48
17209;BME280;8720;48.488;9.202;2023-03-02T09:53:30;97024.47;;;10.38;45.58
17209;BME280;8720;48.488;9.202;2023-03-02T09:56:00;97013.88;;;10.44;45.47
17209;BME280;8720;48.488;9.202;2023-03-02T09:58:35;97023.28;;;10.53;45.32
17209;BME280;8720;48.488;9.202;2023-03-02T10:01:12;97025.75;;;10.57;45.21
17209;BME280;8720;48.488;9.202;2023-03-02T10:03:51;97028.31;;;10.60;45.33
17209;BME280;8720;48.488;9.202;2023-03-02T10:06:21;97023.81;;;10.65;45.23
17209;BME280;8720;48.488;9.202;2023-03-02T10:08:48;97024.56;;;10.70;45.33
17209;BME280;8720;48.488;9.202;2023-03-02T10:11:29;96997.81;;;10.59;45.20
17209;BME280;8720;48.488;9.202;2023-03-02T10:14:06;97023.44;;;10.80;45.25
17209;BME280;8720;48.488;9.202;2023-03-02T10:16:46;97027.50;;;10.92;45.24
17209;BME280;8720;48.488;9.202;2023-03-02T10:19:24;97040.25;;;11.06;45.17
17209;BME280;8720;48.488;9.202;2023-03-02T10:21:59;97023.44;;;11.14;45.04
17209;BME280;8720;48.488;9.202;2023-03-02T10:24:37;97034.59;;;11.22;44.89
17209;BME280;8720;48.488;9.202;2023-03-02T10:27:16;97030.09;;;11.27;44.83
17209;BME280;8720;48.488;9.202;2023-03-02T10:29:54;97032.53;;;11.33;44.76
17209;BME280;8720;48.488;9.202;2023-03-02T10:32:32;97036.78;;;11.37;44.71
17209;BME280;8720;48.488;9.202;2023-03-02T10:35:13;97033.16;;;11.43;44.67
17209;BME280;8720;48.488;9.202;2023-03-02T10:37:42;97041.63;;;11.52;44.47
17209;BME280;8720;48.488;9.202;2023-03-02T10:40:28;97038.78;;;11.60;44.57
17209;BME280;8720;48.488;9.202;2023-03-02T10:43:06;97046.41;;;11.69;44.51
17209;BME280;8720;48.488;9.202;2023-03-02T10:45:38;97043.72;;;11.72;44.30
17209;BME280;8720;48.488;9.202;2023-03-02T10:48:11;97043.63;;;11.75;44.36
17209;BME280;8720;48.488;9.202;2023-03-02T10:50:42;97032.28;;;11.74;43.76
17209;BME280;8720;48.488;9.202;2023-03-02T10:53:17;97048.59;;;11.84;44.24
17209;BME280;8720;48.488;9.202;2023-03-02T10:55:46;97038.81;;;11.91;44.00
17209;BME280;8720;48.488;9.202;2023-03-02T10:58:24;97041.38;;;11.92;43.93
17209;BME280;8720;48.488;9.202;2023-03-02T11:00:59;97056.94;;;11.98;43.98
17209;BME280;8720;48.488;9.202;2023-03-02T11:03:28;97048.06;;;12.02;44.00
17209;BME280;8720;48.488;9.202;2023-03-02T11:05:57;97044.47;;;12.06;43.87
17209;BME280;8720;48.488;9.202;2023-03-02T11:08:27;97038.41;;;12.04;44.08
17209;BME280;8720;48.488;9.202;2023-03-02T11:10:59;97036.53;;;12.08;43.77
17209;BME280;8720;48.488;9.202;2023-03-02T11:13:31;97041.66;;;12.12;43.80
17209;BME280;8720;48.488;9.202;2023-03-02T11:16:02;97032.00;;;12.14;43.73
17209;BME280;8720;48.488;9.202;2023-03-02T11:18:36;97040.63;;;12.18;43.61
17209;BME280;8720;48.488;9.202;2023-03-02T11:21:09;97046.63;;;12.21;43.51
17209;BME280;8720;48.488;9.202;2023-03-02T11:23:57;97039.53;;;12.25;43.85
17209;BME280;8720;48.488;9.202;2023-03-02T11:26:32;97036.72;;;12.31;43.65
17209;BME280;8720;48.488;9.202;2023-03-02T11:29:08;97033.84;;;12.38;43.52
17209;BME280;8720;48.488;9.202;2023-03-02T11:31:45;97037.91;;;12.48;43.58
17209;BME280;8720;48.488;9.202;2023-03-02T11:34:33;97028.09;;;12.55;43.59
17209;BME280;8720;48.488;9.202;2023-03-02T11:37:18;97026.94;;;12.63;43.41
17209;BME280;8720;48.488;9.202;2023-03-02T11:40:12;97029.38;;;12.69;43.46
17209;BME280;8720;48.488;9.202;2023-03-02T11:42:44;97025.63;;;12.76;43.38
17209;BME280;8720;48.488;9.202;2023-03-02T11:45:23;97023.59;;;12.86;43.33
17209;BME280;8720;48.488;9.202;2023-03-02T11:48:01;97020.53;;;12.98;43.24
17209;BME280;8720;48.488;9.202;2023-03-02T11:50:34;96996.09;;;12.96;42.98
17209;BME280;8720;48.488;9.202;2023-03-02T11:53:09;97028.72;;;13.17;42.89
17209;BME280;8720;48.488;9.202;2023-03-02T11:55:43;97026.72;;;13.23;42.74
17209;BME280;8720;48.488;9.202;2023-03-02T11:58:17;97026.66;;;13.25;42.77
17209;BME280;8720;48.488;9.202;2023-03-02T12:00:47;97026.66;;;13.25;42.52
17209;BME280;8720;48.488;9.202;2023-03-02T12:03:37;97027.50;;;13.25;42.79
17209;BME280;8720;48.488;9.202;2023-03-02T12:06:23;97021.19;;;13.31;42.66
17209;BME280;8720;48.488;9.202;2023-03-02T12:09:07;97025.53;;;13.32;42.44
17209;BME280;8720;48.488;9.202;2023-03-02T12:11:38;97028.00;;;13.36;42.37
17209;BME280;8720;48.488;9.202;2023-03-02T12:14:27;97029.59;;;13.40;42.54
17209;BME280;8720;48.488;9.202;2023-03-02T12:17:19;97026.03;;;13.43;42.35
17209;BME280;8720;48.488;9.202;2023-03-02T12:19:51;97026.75;;;13.46;42.20
17209;BME280;8720;48.488;9.202;2023-03-02T12:22:29;97025.81;;;13.49;42.07
17209;BME280;8720;48.488;9.202;2023-03-02T12:25:04;97014.38;;;13.50;42.12
17209;BME280;8720;48.488;9.202;2023-03-02T12:27:39;97016.25;;;13.46;41.98
17209;BME280;8720;48.488;9.202;2023-03-02T12:30:23;97015.63;;;13.40;42.16
17209;BME280;8720;48.488;9.202;2023-03-02T12:33:19;97016.72;;;13.33;42.22
17209;BME280;8720;48.488;9.202;2023-03-02T12:35:49;97013.44;;;13.28;42.07
17209;BME280;8720;48.488;9.202;2023-03-02T12:38:27;97021.44;;;13.23;41.98
17209;BME280;8720;48.488;9.202;2023-03-02T12:41:20;97026.72;;;13.23;42.20
17209;BME280;8720;48.488;9.202;2023-03-02T12:44:10;97024.81;;;13.27;42.26
17209;BME280;8720;48.488;9.202;2023-03-02T12:46:44;97027.31;;;13.31;42.21
17209;BME280;8720;48.488;9.202;2023-03-02T12:49:45;97021.94;;;13.34;42.45
17209;BME280;8720;48.488;9.202;2023-03-02T12:52:26;97019.06;;;13.42;42.09
17209;BME280;8720;48.488;9.202;2023-03-02T12:55:04;97018.81;;;13.48;42.22
17209;BME280;8720;48.488;9.202;2023-03-02T12:57:32;97012.53;;;13.53;42.06
17209;BME280;8720;48.488;9.202;2023-03-02T13:00:14;97021.03;;;13.60;42.08
17209;BME280;8720;48.488;9.202;2023-03-02T13:02:46;97013.88;;;13.63;41.96
17209;BME280;8720;48.488;9.202;2023-03-02T13:05:18;97015.69;;;13.63;41.76
17209;BME280;8720;48.488;9.202;2023-03-02T13:07:58;97019.19;;;13.62;41.69
17209;BME280;8720;48.488;9.202;2023-03-02T13:10:29;97007.78;;;13.63;41.83
17209;BME280;8720;48.488;9.202;2023-03-02T13:13:11;97016.34;;;13.68;41.73
17209;BME280;8720;48.488;9.202;2023-03-02T13:15:48;97009.34;;;13.68;41.97
17209;BME280;8720;48.488;9.202;2023-03-02T13:18:16;96998.88;;;13.67;41.49
17209;BME280;8720;48.488;9.202;2023-03-02T13:20:44;97012.41;;;13.80;41.57
17209;BME280;8720;48.488;9.202;2023-03-02T13:23:15;97007.97;;;13.82;41.34
17209;BME280;8720;48.488;9.202;2023-03-02T13:25:51;97005.41;;;13.80;41.37
17209;BME280;8720;48.488;9.202;2023-03-02T13:28:27;97014.31;;;13.76;41.44
17209;BME280;8720;48.488;9.202;2023-03-02T13:30:59;97010.97;;;13.71;41.46
17209;BME280;8720;48.488;9.202;2023-03-02T13:33:29;97009.41;;;13.67;41.44
17209;BME280;8720;48.488;9.202;2023-03-02T13:35:57;97012.13;;;13.64;41.39
17209;BME280;8720;48.488;9.202;2023-03-02T13:38:34;97002.75;;;13.57;41.46
17209;BME280;8720;48.488;9.202;2023-03-02T13:41:02;97008.16;;;13.52;41.36
17209;BME280;8720;48.488;9.202;2023-03-02T13:43:36;97003.97;;;13.47;41.45
17209;BME280;8720;48.488;9.202;2023-03-02T13:48:53;97008.75;;;13.36;41.39